Accueil
METAR-TAF:

METAR-TAF

Aéroports :

Aitutaki, Îles Cook

latitude: 18-49-51S, longitude: 159-45-51W, altitude: 4 m

Observation

Le bulletin a été fait il y a 47 minutes, à 13:00 UTC
Vent 11 kt de est, variant entre est/nord-est et est/sud-est
Température 23°C
Humidité 83%
Pression 1016 hPa

METAR: NCAI 211300Z AUTO 10011KT 060V120 //// ////// 23/20 Q1016

Heure: 03:47 (13:47 UTC)


TAF: absent

Observations et prévisions météorologiques de plus de 4000 aéroports (messages METAR et TAF).

Les stations disponibles sont représentées par des disques jaunes et rouges sur la carte.

Passer la souris dessus pour voir le nom de la station.

Cliquer dessus pour voir les observations et prévisions météorologiques.

Pour changer de carte: cliquez sur les boutons verts avec une croix noire pour zoomer, sur le bouton vert avec un tiret pour effectuer un zoom arrière, ou sur les flèches vertes pour les cartes adjacentes.


METAR-TAF: